sensor_id;sensor_type;location;lat;lon;timestamp;temperature;humidity
13591;DHT22;6866;50.778;7.206;2023-04-25T00:01:35;10.00;97.60
13591;DHT22;6866;50.778;7.206;2023-04-25T00:04:03;10.00;97.40
13591;DHT22;6866;50.778;7.206;2023-04-25T00:06:29;10.00;97.50
13591;DHT22;6866;50.778;7.206;2023-04-25T00:08:55;9.90;97.70
13591;DHT22;6866;50.778;7.206;2023-04-25T00:11:22;9.90;98.10
13591;DHT22;6866;50.778;7.206;2023-04-25T00:13:47;9.80;97.90
13591;DHT22;6866;50.778;7.206;2023-04-25T00:16:13;9.80;98.60
13591;DHT22;6866;50.778;7.206;2023-04-25T00:18:41;9.80;98.90
13591;DHT22;6866;50.778;7.206;2023-04-25T00:21:07;9.70;99.80
13591;DHT22;6866;50.778;7.206;2023-04-25T00:23:32;9.80;99.80
13591;DHT22;6866;50.778;7.206;2023-04-25T00:25:58;9.70;99.50
13591;DHT22;6866;50.778;7.206;2023-04-25T00:28:23;9.70;99.90
13591;DHT22;6866;50.778;7.206;2023-04-25T00:30:49;9.60;99.90
13591;DHT22;6866;50.778;7.206;2023-04-25T00:33:15;9.50;99.70
13591;DHT22;6866;50.778;7.206;2023-04-25T00:35:42;9.50;99.90
13591;DHT22;6866;50.778;7.206;2023-04-25T00:38:07;9.50;99.90
13591;DHT22;6866;50.778;7.206;2023-04-25T00:40:33;9.50;99.90
13591;DHT22;6866;50.778;7.206;2023-04-25T00:42:58;9.50;99.90
13591;DHT22;6866;50.778;7.206;2023-04-25T00:45:28;9.50;99.90
13591;DHT22;6866;50.778;7.206;2023-04-25T00:47:54;9.40;99.90
13591;DHT22;6866;50.778;7.206;2023-04-25T00:50:20;9.30;99.90
13591;DHT22;6866;50.778;7.206;2023-04-25T00:52:45;9.20;99.90
13591;DHT22;6866;50.778;7.206;2023-04-25T00:55:12;9.30;99.90
13591;DHT22;6866;50.778;7.206;2023-04-25T00:57:38;9.30;99.90
13591;DHT22;6866;50.778;7.206;2023-04-25T01:05:21;9.10;99.90
13591;DHT22;6866;50.778;7.206;2023-04-25T01:07:47;9.10;99.90
13591;DHT22;6866;50.778;7.206;2023-04-25T01:10:12;9.10;99.90
13591;DHT22;6866;50.778;7.206;2023-04-25T01:12:38;9.00;99.90
13591;DHT22;6866;50.778;7.206;2023-04-25T01:15:04;9.00;99.90
13591;DHT22;6866;50.778;7.206;2023-04-25T01:17:30;9.00;99.90
13591;DHT22;6866;50.778;7.206;2023-04-25T01:19:56;8.90;99.90
13591;DHT22;6866;50.778;7.206;2023-04-25T01:22:22;8.80;99.90
13591;DHT22;6866;50.778;7.206;2023-04-25T01:24:48;8.80;99.90
13591;DHT22;6866;50.778;7.206;2023-04-25T01:27:14;8.70;99.90
13591;DHT22;6866;50.778;7.206;2023-04-25T01:29:40;8.70;99.90
13591;DHT22;6866;50.778;7.206;2023-04-25T01:32:06;8.70;99.90
13591;DHT22;6866;50.778;7.206;2023-04-25T01:34:32;8.70;99.90
13591;DHT22;6866;50.778;7.206;2023-04-25T01:36:59;8.70;99.90
13591;DHT22;6866;50.778;7.206;2023-04-25T01:39:26;8.70;99.90
13591;DHT22;6866;50.778;7.206;2023-04-25T01:41:51;8.70;99.90
13591;DHT22;6866;50.778;7.206;2023-04-25T01:44:17;8.60;99.90
13591;DHT22;6866;50.778;7.206;2023-04-25T01:46:42;8.60;99.90
13591;DHT22;6866;50.778;7.206;2023-04-25T01:49:08;8.50;99.90
13591;DHT22;6866;50.778;7.206;2023-04-25T01:51:34;8.50;99.90
13591;DHT22;6866;50.778;7.206;2023-04-25T01:54:00;8.40;99.90
13591;DHT22;6866;50.778;7.206;2023-04-25T01:56:30;8.40;99.90
13591;DHT22;6866;50.778;7.206;2023-04-25T01:58:57;8.40;99.90
13591;DHT22;6866;50.778;7.206;2023-04-25T02:01:22;8.30;99.90
13591;DHT22;6866;50.778;7.206;2023-04-25T02:03:48;8.30;99.90
13591;DHT22;6866;50.778;7.206;2023-04-25T02:06:13;8.30;99.90
13591;DHT22;6866;50.778;7.206;2023-04-25T02:08:39;8.40;99.90
13591;DHT22;6866;50.778;7.206;2023-04-25T02:11:04;8.40;99.90
13591;DHT22;6866;50.778;7.206;2023-04-25T02:13:30;8.40;99.90
13591;DHT22;6866;50.778;7.206;2023-04-25T02:15:56;8.50;99.90
13591;DHT22;6866;50.778;7.206;2023-04-25T02:18:22;8.50;99.90
13591;DHT22;6866;50.778;7.206;2023-04-25T02:20:47;8.70;99.90
13591;DHT22;6866;50.778;7.206;2023-04-25T02:23:13;8.70;99.90
13591;DHT22;6866;50.778;7.206;2023-04-25T02:25:40;8.70;99.90
13591;DHT22;6866;50.778;7.206;2023-04-25T02:28:06;8.70;99.90
13591;DHT22;6866;50.778;7.206;2023-04-25T02:30:31;8.80;99.90
13591;DHT22;6866;50.778;7.206;2023-04-25T02:32:57;8.80;99.90
13591;DHT22;6866;50.778;7.206;2023-04-25T02:35:23;8.90;99.90
13591;DHT22;6866;50.778;7.206;2023-04-25T02:37:48;8.80;99.90
13591;DHT22;6866;50.778;7.206;2023-04-25T02:40:14;8.90;99.90
13591;DHT22;6866;50.778;7.206;2023-04-25T02:42:39;8.90;99.90
13591;DHT22;6866;50.778;7.206;2023-04-25T02:45:05;8.80;99.90
13591;DHT22;6866;50.778;7.206;2023-04-25T02:47:31;8.80;99.90
13591;DHT22;6866;50.778;7.206;2023-04-25T02:49:56;8.90;99.90
13591;DHT22;6866;50.778;7.206;2023-04-25T02:52:22;8.90;99.90
13591;DHT22;6866;50.778;7.206;2023-04-25T02:54:47;8.80;99.90
13591;DHT22;6866;50.778;7.206;2023-04-25T02:57:13;8.80;99.90
13591;DHT22;6866;50.778;7.206;2023-04-25T02:59:39;8.80;99.90
13591;DHT22;6866;50.778;7.206;2023-04-25T03:02:04;8.80;99.90
13591;DHT22;6866;50.778;7.206;2023-04-25T03:04:30;8.70;99.90
13591;DHT22;6866;50.778;7.206;2023-04-25T03:06:55;8.70;99.90
13591;DHT22;6866;50.778;7.206;2023-04-25T03:09:21;8.70;99.90
13591;DHT22;6866;50.778;7.206;2023-04-25T03:11:47;8.70;99.90
13591;DHT22;6866;50.778;7.206;2023-04-25T03:14:13;8.60;99.90
13591;DHT22;6866;50.778;7.206;2023-04-25T03:16:38;8.60;99.90
13591;DHT22;6866;50.778;7.206;2023-04-25T03:19:04;8.50;99.90
13591;DHT22;6866;50.778;7.206;2023-04-25T03:21:31;8.50;99.90
13591;DHT22;6866;50.778;7.206;2023-04-25T03:23:58;8.50;99.90
13591;DHT22;6866;50.778;7.206;2023-04-25T03:26:24;8.40;99.90
13591;DHT22;6866;50.778;7.206;2023-04-25T03:28:49;8.40;99.90
13591;DHT22;6866;50.778;7.206;2023-04-25T03:31:15;8.40;99.90
13591;DHT22;6866;50.778;7.206;2023-04-25T03:33:40;8.40;99.90
13591;DHT22;6866;50.778;7.206;2023-04-25T03:36:06;8.40;99.90
13591;DHT22;6866;50.778;7.206;2023-04-25T03:38:32;8.40;99.90
13591;DHT22;6866;50.778;7.206;2023-04-25T03:40:58;8.30;99.90
13591;DHT22;6866;50.778;7.206;2023-04-25T03:43:23;8.30;99.90
13591;DHT22;6866;50.778;7.206;2023-04-25T03:45:49;8.30;99.90
13591;DHT22;6866;50.778;7.206;2023-04-25T03:48:15;8.20;99.90
13591;DHT22;6866;50.778;7.206;2023-04-25T03:50:40;8.20;99.90
13591;DHT22;6866;50.778;7.206;2023-04-25T03:53:06;8.20;99.90
13591;DHT22;6866;50.778;7.206;2023-04-25T03:55:31;8.30;99.90
13591;DHT22;6866;50.778;7.206;2023-04-25T03:57:58;8.20;99.90
13591;DHT22;6866;50.778;7.206;2023-04-25T04:00:24;8.20;99.90
13591;DHT22;6866;50.778;7.206;2023-04-25T04:02:50;8.20;99.90
13591;DHT22;6866;50.778;7.206;2023-04-25T04:05:16;8.30;99.90
13591;DHT22;6866;50.778;7.206;2023-04-25T04:07:41;8.30;99.90
13591;DHT22;6866;50.778;7.206;2023-04-25T04:10:11;8.30;99.90
13591;DHT22;6866;50.778;7.206;2023-04-25T04:12:37;8.30;99.90
13591;DHT22;6866;50.778;7.206;2023-04-25T04:15:06;8.30;99.90
13591;DHT22;6866;50.778;7.206;2023-04-25T04:17:32;8.20;99.90
13591;DHT22;6866;50.778;7.206;2023-04-25T04:19:58;8.20;99.90
13591;DHT22;6866;50.778;7.206;2023-04-25T04:22:24;8.20;99.90
13591;DHT22;6866;50.778;7.206;2023-04-25T04:24:50;8.30;99.90
13591;DHT22;6866;50.778;7.206;2023-04-25T04:27:17;8.40;99.90
13591;DHT22;6866;50.778;7.206;2023-04-25T04:29:43;8.40;99.90
13591;DHT22;6866;50.778;7.206;2023-04-25T04:32:09;8.50;99.90
13591;DHT22;6866;50.778;7.206;2023-04-25T04:34:35;8.60;99.90
13591;DHT22;6866;50.778;7.206;2023-04-25T04:37:01;8.60;99.90
13591;DHT22;6866;50.778;7.206;2023-04-25T04:39:26;8.60;99.90
13591;DHT22;6866;50.778;7.206;2023-04-25T04:41:52;8.50;99.90
13591;DHT22;6866;50.778;7.206;2023-04-25T04:44:17;8.50;99.90
13591;DHT22;6866;50.778;7.206;2023-04-25T04:46:43;8.60;99.90
13591;DHT22;6866;50.778;7.206;2023-04-25T04:49:10;8.60;99.90
13591;DHT22;6866;50.778;7.206;2023-04-25T04:51:35;8.60;99.90
13591;DHT22;6866;50.778;7.206;2023-04-25T04:54:02;8.50;99.90
13591;DHT22;6866;50.778;7.206;2023-04-25T04:56:29;8.60;99.90
13591;DHT22;6866;50.778;7.206;2023-04-25T04:58:56;8.70;99.90
13591;DHT22;6866;50.778;7.206;2023-04-25T05:01:22;8.60;99.90
13591;DHT22;6866;50.778;7.206;2023-04-25T05:03:47;8.60;99.90
13591;DHT22;6866;50.778;7.206;2023-04-25T05:06:13;8.70;99.90
13591;DHT22;6866;50.778;7.206;2023-04-25T05:08:38;8.70;99.90
13591;DHT22;6866;50.778;7.206;2023-04-25T05:11:05;8.70;99.90
13591;DHT22;6866;50.778;7.206;2023-04-25T05:13:30;8.60;99.90
13591;DHT22;6866;50.778;7.206;2023-04-25T05:15:56;8.70;99.90
13591;DHT22;6866;50.778;7.206;2023-04-25T05:18:21;8.80;99.90
13591;DHT22;6866;50.778;7.206;2023-04-25T05:20:47;8.80;99.90
13591;DHT22;6866;50.778;7.206;2023-04-25T05:23:13;8.80;99.90
13591;DHT22;6866;50.778;7.206;2023-04-25T05:25:38;8.80;99.90
13591;DHT22;6866;50.778;7.206;2023-04-25T05:28:04;8.90;99.90
13591;DHT22;6866;50.778;7.206;2023-04-25T05:30:30;8.90;99.90
13591;DHT22;6866;50.778;7.206;2023-04-25T05:32:56;9.00;99.90
13591;DHT22;6866;50.778;7.206;2023-04-25T05:35:22;9.10;99.90
13591;DHT22;6866;50.778;7.206;2023-04-25T05:37:47;9.20;99.90
13591;DHT22;6866;50.778;7.206;2023-04-25T05:40:13;9.10;99.90
13591;DHT22;6866;50.778;7.206;2023-04-25T05:42:38;9.20;99.90
13591;DHT22;6866;50.778;7.206;2023-04-25T05:45:04;9.20;99.90
13591;DHT22;6866;50.778;7.206;2023-04-25T05:47:30;9.20;99.90
13591;DHT22;6866;50.778;7.206;2023-04-25T05:49:56;9.30;99.90
13591;DHT22;6866;50.778;7.206;2023-04-25T05:52:21;9.30;99.90
13591;DHT22;6866;50.778;7.206;2023-04-25T05:54:47;9.40;99.90
13591;DHT22;6866;50.778;7.206;2023-04-25T05:57:24;9.40;99.90
13591;DHT22;6866;50.778;7.206;2023-04-25T05:59:50;9.40;99.90
13591;DHT22;6866;50.778;7.206;2023-04-25T06:02:16;9.40;99.90
13591;DHT22;6866;50.778;7.206;2023-04-25T06:04:42;9.50;99.90
13591;DHT22;6866;50.778;7.206;2023-04-25T06:07:07;9.60;99.90
13591;DHT22;6866;50.778;7.206;2023-04-25T06:09:33;9.70;99.90
13591;DHT22;6866;50.778;7.206;2023-04-25T06:11:58;9.90;99.90
13591;DHT22;6866;50.778;7.206;2023-04-25T06:14:24;9.80;99.90
13591;DHT22;6866;50.778;7.206;2023-04-25T06:16:50;10.00;99.90
13591;DHT22;6866;50.778;7.206;2023-04-25T06:19:15;10.30;99.90
13591;DHT22;6866;50.778;7.206;2023-04-25T06:21:43;10.50;98.50
13591;DHT22;6866;50.778;7.206;2023-04-25T06:24:08;10.60;98.00
13591;DHT22;6866;50.778;7.206;2023-04-25T06:26:34;11.00;96.70
13591;DHT22;6866;50.778;7.206;2023-04-25T06:28:59;11.10;95.10
13591;DHT22;6866;50.778;7.206;2023-04-25T06:31:25;10.90;96.10
13591;DHT22;6866;50.778;7.206;2023-04-25T06:33:51;10.90;94.90
13591;DHT22;6866;50.778;7.206;2023-04-25T06:36:20;10.60;95.70
13591;DHT22;6866;50.778;7.206;2023-04-25T06:38:52;10.80;94.30
13591;DHT22;6866;50.778;7.206;2023-04-25T06:41:18;10.90;94.50
13591;DHT22;6866;50.778;7.206;2023-04-25T06:43:44;11.30;92.30
13591;DHT22;6866;50.778;7.206;2023-04-25T06:46:10;11.30;93.20
13591;DHT22;6866;50.778;7.206;2023-04-25T06:48:36;11.40;91.10
13591;DHT22;6866;50.778;7.206;2023-04-25T06:51:01;11.60;91.20
13591;DHT22;6866;50.778;7.206;2023-04-25T06:53:27;11.70;87.50
13591;DHT22;6866;50.778;7.206;2023-04-25T06:55:52;11.70;87.00
13591;DHT22;6866;50.778;7.206;2023-04-25T06:58:18;12.60;83.50
13591;DHT22;6866;50.778;7.206;2023-04-25T07:00:44;13.20;77.10
13591;DHT22;6866;50.778;7.206;2023-04-25T07:03:09;13.90;72.10
13591;DHT22;6866;50.778;7.206;2023-04-25T07:05:35;14.00;66.10
13591;DHT22;6866;50.778;7.206;2023-04-25T07:08:01;13.40;64.40
13591;DHT22;6866;50.778;7.206;2023-04-25T07:10:26;14.80;64.10
13591;DHT22;6866;50.778;7.206;2023-04-25T07:12:52;14.40;62.30
13591;DHT22;6866;50.778;7.206;2023-04-25T07:15:17;15.00;62.90
13591;DHT22;6866;50.778;7.206;2023-04-25T07:17:43;16.60;58.80
13591;DHT22;6866;50.778;7.206;2023-04-25T07:20:08;18.90;52.20
13591;DHT22;6866;50.778;7.206;2023-04-25T07:22:35;18.60;46.90
13591;DHT22;6866;50.778;7.206;2023-04-25T07:25:00;15.80;51.80
13591;DHT22;6866;50.778;7.206;2023-04-25T07:27:26;15.40;53.00
13591;DHT22;6866;50.778;7.206;2023-04-25T07:29:52;15.00;57.70
13591;DHT22;6866;50.778;7.206;2023-04-25T07:32:17;16.40;53.90
13591;DHT22;6866;50.778;7.206;2023-04-25T07:34:43;15.40;55.50
13591;DHT22;6866;50.778;7.206;2023-04-25T07:37:08;15.00;56.90
13591;DHT22;6866;50.778;7.206;2023-04-25T07:39:34;14.30;58.30
13591;DHT22;6866;50.778;7.206;2023-04-25T07:42:00;15.50;55.30
13591;DHT22;6866;50.778;7.206;2023-04-25T07:44:27;14.60;56.60
13591;DHT22;6866;50.778;7.206;2023-04-25T07:46:53;16.20;53.30
13591;DHT22;6866;50.778;7.206;2023-04-25T07:49:18;15.30;53.60
13591;DHT22;6866;50.778;7.206;2023-04-25T07:51:44;14.30;56.90
13591;DHT22;6866;50.778;7.206;2023-04-25T07:54:14;13.70;60.50
13591;DHT22;6866;50.778;7.206;2023-04-25T07:56:40;13.10;61.00
13591;DHT22;6866;50.778;7.206;2023-04-25T07:59:06;12.70;62.50
13591;DHT22;6866;50.778;7.206;2023-04-25T08:01:31;12.20;62.80
13591;DHT22;6866;50.778;7.206;2023-04-25T08:03:57;12.70;62.10
13591;DHT22;6866;50.778;7.206;2023-04-25T08:06:23;12.60;63.00
13591;DHT22;6866;50.778;7.206;2023-04-25T08:08:48;12.30;62.60
13591;DHT22;6866;50.778;7.206;2023-04-25T08:11:14;12.00;62.40
13591;DHT22;6866;50.778;7.206;2023-04-25T08:13:39;12.00;63.10
13591;DHT22;6866;50.778;7.206;2023-04-25T08:16:05;12.10;63.80
13591;DHT22;6866;50.778;7.206;2023-04-25T08:18:30;12.30;62.70
13591;DHT22;6866;50.778;7.206;2023-04-25T08:20:56;12.30;63.10
13591;DHT22;6866;50.778;7.206;2023-04-25T08:23:22;12.20;63.50
13591;DHT22;6866;50.778;7.206;2023-04-25T08:25:47;12.00;63.30
13591;DHT22;6866;50.778;7.206;2023-04-25T08:28:13;11.80;62.60
13591;DHT22;6866;50.778;7.206;2023-04-25T08:30:40;11.80;62.70
13591;DHT22;6866;50.778;7.206;2023-04-25T08:33:06;11.90;62.30
13591;DHT22;6866;50.778;7.206;2023-04-25T08:35:31;11.90;61.20
13591;DHT22;6866;50.778;7.206;2023-04-25T08:37:58;12.00;62.30
13591;DHT22;6866;50.778;7.206;2023-04-25T08:40:26;12.10;62.50
13591;DHT22;6866;50.778;7.206;2023-04-25T08:42:56;12.30;60.50
13591;DHT22;6866;50.778;7.206;2023-04-25T08:45:22;12.20;62.80
13591;DHT22;6866;50.778;7.206;2023-04-25T08:47:51;12.20;61.50
13591;DHT22;6866;50.778;7.206;2023-04-25T08:50:17;11.90;61.70
13591;DHT22;6866;50.778;7.206;2023-04-25T08:52:47;12.40;62.80
13591;DHT22;6866;50.778;7.206;2023-04-25T08:55:13;12.70;60.60
13591;DHT22;6866;50.778;7.206;2023-04-25T08:57:41;12.80;60.90
13591;DHT22;6866;50.778;7.206;2023-04-25T09:00:09;12.60;59.20
13591;DHT22;6866;50.778;7.206;2023-04-25T09:02:35;12.60;59.80
13591;DHT22;6866;50.778;7.206;2023-04-25T09:05:02;12.90;58.10
13591;DHT22;6866;50.778;7.206;2023-04-25T09:07:29;13.00;57.40
13591;DHT22;6866;50.778;7.206;2023-04-25T09:09:55;13.60;55.20
13591;DHT22;6866;50.778;7.206;2023-04-25T09:12:21;13.90;53.80
13591;DHT22;6866;50.778;7.206;2023-04-25T09:15:11;13.80;53.50
13591;DHT22;6866;50.778;7.206;2023-04-25T09:17:36;13.40;55.30
13591;DHT22;6866;50.778;7.206;2023-04-25T09:20:09;13.20;55.40
13591;DHT22;6866;50.778;7.206;2023-04-25T09:22:36;13.10;57.00
13591;DHT22;6866;50.778;7.206;2023-04-25T09:25:12;13.00;56.60
13591;DHT22;6866;50.778;7.206;2023-04-25T09:27:52;12.70;56.60
13591;DHT22;6866;50.778;7.206;2023-04-25T09:30:18;12.50;58.00
13591;DHT22;6866;50.778;7.206;2023-04-25T09:32:44;12.30;56.70
13591;DHT22;6866;50.778;7.206;2023-04-25T09:35:10;12.30;56.80
13591;DHT22;6866;50.778;7.206;2023-04-25T09:37:36;12.10;57.30
13591;DHT22;6866;50.778;7.206;2023-04-25T09:40:06;11.90;58.40
13591;DHT22;6866;50.778;7.206;2023-04-25T09:42:33;11.90;59.20
13591;DHT22;6866;50.778;7.206;2023-04-25T09:45:00;11.70;59.50
13591;DHT22;6866;50.778;7.206;2023-04-25T09:47:29;11.40;57.90
13591;DHT22;6866;50.778;7.206;2023-04-25T09:49:55;11.40;58.80
13591;DHT22;6866;50.778;7.206;2023-04-25T09:52:24;11.40;59.60
13591;DHT22;6866;50.778;7.206;2023-04-25T09:54:50;11.70;60.60
13591;DHT22;6866;50.778;7.206;2023-04-25T09:57:21;11.80;59.80
13591;DHT22;6866;50.778;7.206;2023-04-25T09:59:50;11.90;60.80
13591;DHT22;6866;50.778;7.206;2023-04-25T10:02:17;12.00;58.90
13591;DHT22;6866;50.778;7.206;2023-04-25T10:04:48;12.10;60.70
13591;DHT22;6866;50.778;7.206;2023-04-25T10:07:14;12.00;58.20
13591;DHT22;6866;50.778;7.206;2023-04-25T10:09:40;11.80;56.90
13591;DHT22;6866;50.778;7.206;2023-04-25T10:12:07;12.00;59.30
13591;DHT22;6866;50.778;7.206;2023-04-25T10:14:33;12.30;60.20
13591;DHT22;6866;50.778;7.206;2023-04-25T10:16:59;12.40;58.00
13591;DHT22;6866;50.778;7.206;2023-04-25T10:19:26;12.30;58.30
13591;DHT22;6866;50.778;7.206;2023-04-25T10:24:23;12.80;58.30
13591;DHT22;6866;50.778;7.206;2023-04-25T10:26:50;12.80;57.40
13591;DHT22;6866;50.778;7.206;2023-04-25T10:29:26;12.80;57.60
13591;DHT22;6866;50.778;7.206;2023-04-25T10:31:52;12.80;57.20
13591;DHT22;6866;50.778;7.206;2023-04-25T10:34:18;12.90;56.90
13591;DHT22;6866;50.778;7.206;2023-04-25T10:36:49;12.90;56.80
13591;DHT22;6866;50.778;7.206;2023-04-25T10:39:24;12.90;56.40
13591;DHT22;6866;50.778;7.206;2023-04-25T10:41:58;12.80;56.10
13591;DHT22;6866;50.778;7.206;2023-04-25T10:44:28;12.90;55.70
13591;DHT22;6866;50.778;7.206;2023-04-25T10:46:58;12.60;55.50
13591;DHT22;6866;50.778;7.206;2023-04-25T10:49:40;12.20;57.00
13591;DHT22;6866;50.778;7.206;2023-04-25T10:54:53;11.70;56.50
13591;DHT22;6866;50.778;7.206;2023-04-25T11:00:10;11.60;56.90
13591;DHT22;6866;50.778;7.206;2023-04-25T11:02:40;11.50;58.40
13591;DHT22;6866;50.778;7.206;2023-04-25T11:05:06;11.60;59.40
13591;DHT22;6866;50.778;7.206;2023-04-25T11:07:49;11.50;58.70
13591;DHT22;6866;50.778;7.206;2023-04-25T11:10:16;11.60;60.20
13591;DHT22;6866;50.778;7.206;2023-04-25T11:12:42;11.80;60.30
13591;DHT22;6866;50.778;7.206;2023-04-25T11:15:08;12.00;59.50
13591;DHT22;6866;50.778;7.206;2023-04-25T11:17:34;12.10;58.80
13591;DHT22;6866;50.778;7.206;2023-04-25T11:20:00;12.40;59.60
13591;DHT22;6866;50.778;7.206;2023-04-25T11:22:28;12.60;57.70
13591;DHT22;6866;50.778;7.206;2023-04-25T11:24:55;12.70;58.10
13591;DHT22;6866;50.778;7.206;2023-04-25T11:27:21;13.10;57.00
13591;DHT22;6866;50.778;7.206;2023-04-25T11:29:46;13.70;56.20
13591;DHT22;6866;50.778;7.206;2023-04-25T11:32:17;14.00;54.10
13591;DHT22;6866;50.778;7.206;2023-04-25T11:34:43;14.40;53.30
13591;DHT22;6866;50.778;7.206;2023-04-25T11:37:10;14.40;53.50
13591;DHT22;6866;50.778;7.206;2023-04-25T11:39:37;14.20;54.20
13591;DHT22;6866;50.778;7.206;2023-04-25T11:42:04;14.00;51.50
13591;DHT22;6866;50.778;7.206;2023-04-25T11:44:31;13.90;50.60
13591;DHT22;6866;50.778;7.206;2023-04-25T11:46:56;13.40;51.70
13591;DHT22;6866;50.778;7.206;2023-04-25T11:49:22;13.10;53.20
13591;DHT22;6866;50.778;7.206;2023-04-25T11:51:50;12.80;53.80
13591;DHT22;6866;50.778;7.206;2023-04-25T11:54:15;12.70;54.20
13591;DHT22;6866;50.778;7.206;2023-04-25T11:56:45;12.70;54.60
13591;DHT22;6866;50.778;7.206;2023-04-25T11:59:11;12.80;55.10
13591;DHT22;6866;50.778;7.206;2023-04-25T12:01:38;12.80;53.70
13591;DHT22;6866;50.778;7.206;2023-04-25T12:04:12;13.00;53.30
13591;DHT22;6866;50.778;7.206;2023-04-25T12:06:39;12.80;53.90
13591;DHT22;6866;50.778;7.206;2023-04-25T12:09:07;12.60;53.40
13591;DHT22;6866;50.778;7.206;2023-04-25T12:11:41;12.50;53.20
13591;DHT22;6866;50.778;7.206;2023-04-25T12:14:07;12.50;52.20
13591;DHT22;6866;50.778;7.206;2023-04-25T12:16:56;12.60;52.30
13591;DHT22;6866;50.778;7.206;2023-04-25T12:19:26;12.60;52.70
13591;DHT22;6866;50.778;7.206;2023-04-25T12:21:57;12.50;52.70
13591;DHT22;6866;50.778;7.206;2023-04-25T12:24:24;12.80;53.10
13591;DHT22;6866;50.778;7.206;2023-04-25T12:27:04;13.00;53.60
13591;DHT22;6866;50.778;7.206;2023-04-25T12:29:32;13.40;53.10
13591;DHT22;6866;50.778;7.206;2023-04-25T12:31:58;13.50;50.60
13591;DHT22;6866;50.778;7.206;2023-04-25T12:34:24;13.60;51.10
13591;DHT22;6866;50.778;7.206;2023-04-25T12:36:51;13.90;51.20
13591;DHT22;6866;50.778;7.206;2023-04-25T12:39:22;14.40;49.40
13591;DHT22;6866;50.778;7.206;2023-04-25T12:41:48;14.80;47.00
13591;DHT22;6866;50.778;7.206;2023-04-25T12:44:14;14.60;46.80
13591;DHT22;6866;50.778;7.206;2023-04-25T12:46:40;14.00;46.10
13591;DHT22;6866;50.778;7.206;2023-04-25T12:49:08;14.60;47.90
13591;DHT22;6866;50.778;7.206;2023-04-25T12:51:35;14.70;46.00
13591;DHT22;6866;50.778;7.206;2023-04-25T12:54:01;15.10;45.70
13591;DHT22;6866;50.778;7.206;2023-04-25T12:56:27;15.00;45.50
13591;DHT22;6866;50.778;7.206;2023-04-25T12:58:53;14.90;46.80
13591;DHT22;6866;50.778;7.206;2023-04-25T13:01:22;15.20;46.50
13591;DHT22;6866;50.778;7.206;2023-04-25T13:03:49;15.40;46.40
13591;DHT22;6866;50.778;7.206;2023-04-25T13:06:15;15.70;45.10
13591;DHT22;6866;50.778;7.206;2023-04-25T13:08:41;15.10;45.70
13591;DHT22;6866;50.778;7.206;2023-04-25T13:11:07;14.70;45.40
13591;DHT22;6866;50.778;7.206;2023-04-25T13:13:33;14.60;46.00
13591;DHT22;6866;50.778;7.206;2023-04-25T13:16:01;14.70;43.60
13591;DHT22;6866;50.778;7.206;2023-04-25T13:18:27;15.10;44.70
13591;DHT22;6866;50.778;7.206;2023-04-25T13:20:53;14.80;42.90
13591;DHT22;6866;50.778;7.206;2023-04-25T13:23:20;14.60;44.00
13591;DHT22;6866;50.778;7.206;2023-04-25T13:25:46;14.40;43.80
13591;DHT22;6866;50.778;7.206;2023-04-25T13:28:12;14.10;42.70
13591;DHT22;6866;50.778;7.206;2023-04-25T13:30:38;14.10;44.10
13591;DHT22;6866;50.778;7.206;2023-04-25T13:33:03;14.30;44.10
13591;DHT22;6866;50.778;7.206;2023-04-25T13:35:30;14.20;44.50
13591;DHT22;6866;50.778;7.206;2023-04-25T13:37:56;14.10;42.60
13591;DHT22;6866;50.778;7.206;2023-04-25T13:40:22;13.90;43.10
13591;DHT22;6866;50.778;7.206;2023-04-25T13:42:47;13.70;44.20
13591;DHT22;6866;50.778;7.206;2023-04-25T13:45:13;13.70;43.90
13591;DHT22;6866;50.778;7.206;2023-04-25T13:47:38;13.60;44.50
13591;DHT22;6866;50.778;7.206;2023-04-25T13:50:05;13.40;43.40
13591;DHT22;6866;50.778;7.206;2023-04-25T13:52:31;13.40;45.50
13591;DHT22;6866;50.778;7.206;2023-04-25T13:54:57;13.50;45.70
13591;DHT22;6866;50.778;7.206;2023-04-25T13:57:23;13.30;45.80
13591;DHT22;6866;50.778;7.206;2023-04-25T13:59:48;13.10;46.10
13591;DHT22;6866;50.778;7.206;2023-04-25T14:02:14;13.00;46.90
13591;DHT22;6866;50.778;7.206;2023-04-25T14:04:40;13.00;47.40
13591;DHT22;6866;50.778;7.206;2023-04-25T14:07:06;13.10;47.30
13591;DHT22;6866;50.778;7.206;2023-04-25T14:09:31;13.00;47.30
13591;DHT22;6866;50.778;7.206;2023-04-25T14:11:57;13.10;48.00
13591;DHT22;6866;50.778;7.206;2023-04-25T14:14:23;13.20;46.70
13591;DHT22;6866;50.778;7.206;2023-04-25T14:16:49;13.20;47.30
13591;DHT22;6866;50.778;7.206;2023-04-25T14:19:16;13.30;45.50
13591;DHT22;6866;50.778;7.206;2023-04-25T14:21:42;13.30;44.10
13591;DHT22;6866;50.778;7.206;2023-04-25T14:24:09;13.50;44.60
13591;DHT22;6866;50.778;7.206;2023-04-25T14:26:34;13.70;44.30
13591;DHT22;6866;50.778;7.206;2023-04-25T14:29:06;13.70;44.50
13591;DHT22;6866;50.778;7.206;2023-04-25T14:31:33;13.70;44.00
13591;DHT22;6866;50.778;7.206;2023-04-25T14:33:59;13.70;44.00
13591;DHT22;6866;50.778;7.206;2023-04-25T14:36:24;13.70;43.60
13591;DHT22;6866;50.778;7.206;2023-04-25T14:38:52;13.90;43.30
13591;DHT22;6866;50.778;7.206;2023-04-25T14:41:17;14.30;43.90
13591;DHT22;6866;50.778;7.206;2023-04-25T14:43:43;14.40;43.10
13591;DHT22;6866;50.778;7.206;2023-04-25T14:46:10;14.60;42.80
13591;DHT22;6866;50.778;7.206;2023-04-25T14:48:36;14.60;42.60
13591;DHT22;6866;50.778;7.206;2023-04-25T14:51:01;14.30;42.90
13591;DHT22;6866;50.778;7.206;2023-04-25T14:53:27;14.20;44.00
13591;DHT22;6866;50.778;7.206;2023-04-25T14:55:53;14.50;44.00
13591;DHT22;6866;50.778;7.206;2023-04-25T14:58:19;14.60;42.10
13591;DHT22;6866;50.778;7.206;2023-04-25T15:00:45;14.70;42.30
13591;DHT22;6866;50.778;7.206;2023-04-25T15:03:11;14.50;41.00
13591;DHT22;6866;50.778;7.206;2023-04-25T15:05:41;14.20;41.10
13591;DHT22;6866;50.778;7.206;2023-04-25T15:08:07;14.10;41.00
13591;DHT22;6866;50.778;7.206;2023-04-25T15:10:32;14.00;41.50
13591;DHT22;6866;50.778;7.206;2023-04-25T15:12:58;13.70;42.60
13591;DHT22;6866;50.778;7.206;2023-04-25T15:15:23;13.50;44.10
13591;DHT22;6866;50.778;7.206;2023-04-25T15:17:49;13.50;44.90
13591;DHT22;6866;50.778;7.206;2023-04-25T15:20:16;13.50;45.20
13591;DHT22;6866;50.778;7.206;2023-04-25T15:22:43;13.40;46.70
13591;DHT22;6866;50.778;7.206;2023-04-25T15:25:10;13.40;45.40
13591;DHT22;6866;50.778;7.206;2023-04-25T15:27:36;13.30;46.20
13591;DHT22;6866;50.778;7.206;2023-04-25T15:30:09;13.40;47.10
13591;DHT22;6866;50.778;7.206;2023-04-25T15:32:36;13.40;47.00
13591;DHT22;6866;50.778;7.206;2023-04-25T15:35:04;13.50;46.90
13591;DHT22;6866;50.778;7.206;2023-04-25T15:37:31;13.70;46.00
13591;DHT22;6866;50.778;7.206;2023-04-25T15:40:01;13.60;47.20
13591;DHT22;6866;50.778;7.206;2023-04-25T15:42:29;13.50;45.10
13591;DHT22;6866;50.778;7.206;2023-04-25T15:44:55;13.60;42.70
13591;DHT22;6866;50.778;7.206;2023-04-25T15:47:21;13.80;42.90
13591;DHT22;6866;50.778;7.206;2023-04-25T15:49:46;13.70;41.50
13591;DHT22;6866;50.778;7.206;2023-04-25T15:52:12;13.70;41.30
13591;DHT22;6866;50.778;7.206;2023-04-25T15:54:37;13.70;42.30
13591;DHT22;6866;50.778;7.206;2023-04-25T15:57:03;13.70;43.10
13591;DHT22;6866;50.778;7.206;2023-04-25T15:59:28;13.50;41.20
13591;DHT22;6866;50.778;7.206;2023-04-25T16:01:54;13.60;42.50